createdAt,value
2018-04-06T00:01:32.925Z,5.93
2018-04-06T00:04:00.593Z,5.76
2018-04-06T00:06:28.176Z,5.91
2018-04-06T00:08:55.832Z,5.77
2018-04-06T00:11:23.451Z,5.57
2018-04-06T00:13:51.098Z,5.64
2018-04-06T00:16:18.785Z,5.65
2018-04-06T00:18:46.358Z,5.64
2018-04-06T00:21:14.008Z,5.80
2018-04-06T00:23:41.620Z,5.68
2018-04-06T00:26:09.295Z,5.48
2018-04-06T00:28:36.871Z,5.36
2018-04-06T00:31:04.560Z,5.38
2018-04-06T00:33:32.138Z,5.38
2018-04-06T00:35:59.759Z,5.35
2018-04-06T00:38:27.415Z,5.32
2018-04-06T00:40:55.010Z,5.17
2018-04-06T00:43:22.683Z,5.15
2018-04-06T00:45:50.362Z,5.15
2018-04-06T00:48:18.047Z,5.05
2018-04-06T00:50:45.668Z,5.13
2018-04-06T00:53:25.126Z,4.87
2018-04-06T00:55:52.760Z,4.80
2018-04-06T00:58:20.360Z,4.81
2018-04-06T01:00:48.004Z,4.81
2018-04-06T01:03:15.588Z,4.84
2018-04-06T01:05:43.336Z,4.77
2018-04-06T01:08:10.912Z,4.77
2018-04-06T01:10:38.539Z,4.98
2018-04-06T01:13:06.221Z,5.02
2018-04-06T01:15:33.845Z,5.01
2018-04-06T01:18:01.528Z,5.00
2018-04-06T01:20:29.230Z,5.00
2018-04-06T01:22:56.831Z,5.04
2018-04-06T01:25:24.508Z,5.16
2018-04-06T01:27:52.158Z,5.23
2018-04-06T01:30:19.727Z,5.29
2018-04-06T01:32:47.313Z,5.39
2018-04-06T01:35:14.937Z,5.60
2018-04-06T01:37:42.514Z,5.68
2018-04-06T01:40:10.169Z,5.51
2018-04-06T01:42:37.865Z,5.26
2018-04-06T01:45:05.464Z,5.29
2018-04-06T01:47:33.058Z,5.23
2018-04-06T01:50:00.718Z,5.29
2018-04-06T01:52:28.431Z,5.26
2018-04-06T01:54:56.036Z,5.15
2018-04-06T01:57:23.680Z,5.19
2018-04-06T01:59:51.275Z,5.22
2018-04-06T02:02:19.017Z,5.09
2018-04-06T02:04:46.622Z,5.21
2018-04-06T02:07:14.284Z,5.14
2018-04-06T02:09:41.920Z,5.12
2018-04-06T02:12:09.521Z,5.15
2018-04-06T02:14:37.192Z,5.22
2018-04-06T02:17:04.806Z,5.15
2018-04-06T02:19:32.500Z,5.12
2018-04-06T02:22:00.112Z,5.13
2018-04-06T02:24:27.816Z,5.11
2018-04-06T02:26:55.374Z,5.08
2018-04-06T02:29:23.090Z,5.10
2018-04-06T02:31:50.710Z,5.01
2018-04-06T02:34:18.355Z,5.17
2018-04-06T02:36:45.949Z,5.15
2018-04-06T02:39:13.598Z,5.06
2018-04-06T02:41:41.258Z,4.96
2018-04-06T02:44:08.918Z,4.84
2018-04-06T02:46:36.514Z,4.85
2018-04-06T02:49:04.147Z,4.82
2018-04-06T02:51:31.811Z,4.77
2018-04-06T02:53:59.423Z,4.64
2018-04-06T02:56:27.128Z,4.64
2018-04-06T02:58:55.000Z,4.66
2018-04-06T03:01:22.636Z,4.63
2018-04-06T03:03:50.244Z,4.62
2018-04-06T03:06:17.897Z,4.56
2018-04-06T03:08:45.485Z,4.55
2018-04-06T03:11:13.071Z,4.51
2018-04-06T03:13:40.769Z,4.49
2018-04-06T03:16:08.401Z,4.46
2018-04-06T03:18:35.984Z,4.48
2018-04-06T03:21:03.615Z,4.35
2018-04-06T03:23:31.239Z,4.31
2018-04-06T03:25:58.870Z,4.32
2018-04-06T03:28:26.512Z,4.33
2018-04-06T03:30:54.106Z,4.28
2018-04-06T03:33:21.760Z,4.22
2018-04-06T03:35:49.436Z,4.34
2018-04-06T03:38:17.078Z,4.40
2018-04-06T03:40:44.686Z,4.42
2018-04-06T03:43:12.324Z,4.34
2018-04-06T03:45:39.952Z,4.47
2018-04-06T03:48:07.580Z,4.49
2018-04-06T03:50:35.192Z,4.42
2018-04-06T03:53:02.819Z,4.48
2018-04-06T03:55:30.473Z,4.45
2018-04-06T03:57:58.081Z,4.37
2018-04-06T04:00:25.785Z,4.35
2018-04-06T04:02:53.454Z,4.45
2018-04-06T04:05:21.058Z,4.40
2018-04-06T04:07:48.666Z,4.34
2018-04-06T04:10:16.365Z,4.34
2018-04-06T04:12:43.953Z,4.30
2018-04-06T04:15:11.648Z,4.24
2018-04-06T04:17:39.305Z,4.21
2018-04-06T04:20:06.961Z,4.12
2018-04-06T04:22:34.598Z,4.24
2018-04-06T04:25:02.386Z,4.22
2018-04-06T04:27:30.028Z,4.17
2018-04-06T04:29:57.705Z,4.15
2018-04-06T04:32:25.326Z,4.11
2018-04-06T04:34:52.984Z,4.14
2018-04-06T04:37:20.605Z,4.16
2018-04-06T04:39:48.266Z,4.10
2018-04-06T04:42:15.864Z,4.17
2018-04-06T04:44:43.512Z,4.23
2018-04-06T04:47:11.150Z,4.14
2018-04-06T04:49:38.779Z,4.07
2018-04-06T04:52:06.460Z,3.94
2018-04-06T04:54:34.101Z,3.89
2018-04-06T04:57:01.772Z,3.75
2018-04-06T04:59:29.427Z,3.77
2018-04-06T05:01:57.102Z,3.60
2018-04-06T05:04:24.951Z,3.65
2018-04-06T05:06:52.557Z,3.69
2018-04-06T05:09:20.228Z,3.75
2018-04-06T05:11:47.846Z,3.67
2018-04-06T05:14:15.536Z,3.77
2018-04-06T05:16:43.198Z,4.14
2018-04-06T05:19:10.828Z,6.45
2018-04-06T05:21:38.493Z,8.59
2018-04-06T05:24:06.150Z,9.85
2018-04-06T05:26:33.742Z,10.02
2018-04-06T05:29:01.401Z,10.45
2018-04-06T05:31:29.153Z,10.66
2018-04-06T05:33:56.925Z,10.68
2018-04-06T05:36:24.694Z,10.22
2018-04-06T05:38:52.469Z,9.10
2018-04-06T05:41:20.099Z,8.12
2018-04-06T05:43:47.697Z,7.63
2018-04-06T05:46:15.862Z,7.32
2018-04-06T05:48:43.486Z,7.05
2018-04-06T05:51:11.998Z,7.10
2018-04-06T05:53:39.947Z,6.85
2018-04-06T05:56:07.584Z,6.78
2018-04-06T05:58:35.273Z,6.76
2018-04-06T06:01:02.935Z,6.75
2018-04-06T06:03:30.584Z,7.01
2018-04-06T06:05:58.236Z,7.28
2018-04-06T06:08:25.879Z,7.39
2018-04-06T06:10:53.471Z,7.63
2018-04-06T06:13:21.168Z,7.62
2018-04-06T06:15:48.823Z,7.92
2018-04-06T06:18:16.574Z,8.27
2018-04-06T06:20:44.422Z,8.42
2018-04-06T06:23:12.033Z,8.64
2018-04-06T06:25:39.691Z,8.50
2018-04-06T06:28:07.302Z,8.83
2018-04-06T06:30:34.946Z,8.94
2018-04-06T06:33:02.609Z,8.94
2018-04-06T06:35:30.226Z,9.15
2018-04-06T06:37:58.833Z,8.80
2018-04-06T06:40:26.437Z,9.11
2018-04-06T06:42:54.057Z,8.93
2018-04-06T06:45:21.724Z,8.89
2018-04-06T06:47:49.340Z,9.10
2018-04-06T06:50:17.093Z,9.51
2018-04-06T06:52:44.746Z,9.79
2018-04-06T06:55:13.079Z,9.87
2018-04-06T06:57:40.712Z,10.06
2018-04-06T07:00:08.465Z,10.43
2018-04-06T07:02:36.122Z,10.55
2018-04-06T07:05:03.849Z,10.72
2018-04-06T07:07:31.543Z,10.92
2018-04-06T07:09:59.294Z,11.00
2018-04-06T07:12:26.979Z,11.09
2018-04-06T07:14:54.657Z,11.11
2018-04-06T07:17:22.350Z,11.11
2018-04-06T07:19:50.080Z,11.08
2018-04-06T07:22:17.746Z,11.03
2018-04-06T07:24:45.415Z,11.23
2018-04-06T07:27:13.078Z,11.32
2018-04-06T07:29:40.749Z,11.28
2018-04-06T07:32:08.386Z,11.54
2018-04-06T07:34:36.016Z,11.35
2018-04-06T07:37:03.673Z,11.08
2018-04-06T07:39:31.319Z,11.23
2018-04-06T07:41:58.989Z,11.19
2018-04-06T07:44:26.704Z,10.66
2018-04-06T07:46:54.360Z,10.48
2018-04-06T07:49:21.938Z,10.48
2018-04-06T07:51:49.529Z,10.06
2018-04-06T07:54:17.202Z,10.50
2018-04-06T07:56:44.824Z,10.92
2018-04-06T07:59:12.442Z,11.00
2018-04-06T08:01:40.141Z,11.02
2018-04-06T08:04:07.800Z,10.85
2018-04-06T08:06:35.420Z,11.62
2018-04-06T08:09:03.162Z,12.49
2018-04-06T08:11:30.752Z,12.38
2018-04-06T08:13:58.434Z,11.27
2018-04-06T08:16:26.079Z,11.37
2018-04-06T08:18:53.736Z,11.99
2018-04-06T08:21:21.326Z,11.92
2018-04-06T08:23:48.983Z,11.71
2018-04-06T08:26:16.646Z,12.16
2018-04-06T08:28:44.311Z,12.06
2018-04-06T08:31:11.925Z,12.44
2018-04-06T08:33:39.584Z,12.28
2018-04-06T08:36:07.248Z,13.05
2018-04-06T08:38:34.876Z,12.38
2018-04-06T08:41:02.519Z,12.77
2018-04-06T08:43:30.143Z,12.20
2018-04-06T08:45:57.812Z,12.52
2018-04-06T08:48:25.462Z,12.69
2018-04-06T08:50:53.171Z,12.66
2018-04-06T08:53:20.776Z,12.87
2018-04-06T08:55:48.431Z,12.48
2018-04-06T08:58:16.092Z,12.80
2018-04-06T09:00:43.797Z,11.92
2018-04-06T09:03:11.580Z,12.76
2018-04-06T09:05:39.243Z,13.50
2018-04-06T09:08:07.486Z,12.67
2018-04-06T09:10:35.097Z,12.57
2018-04-06T09:13:02.948Z,13.16
2018-04-06T09:15:30.605Z,13.23
2018-04-06T09:17:58.343Z,12.87
2018-04-06T09:20:26.002Z,12.89
2018-04-06T09:22:53.653Z,12.01
2018-04-06T09:25:21.318Z,12.32
2018-04-06T09:27:48.936Z,13.26
2018-04-06T09:30:16.639Z,13.17
2018-04-06T09:32:44.270Z,13.67
2018-04-06T09:35:11.953Z,14.34
2018-04-06T09:37:40.211Z,14.26
2018-04-06T09:40:07.900Z,14.49
2018-04-06T09:42:35.572Z,14.23
2018-04-06T09:45:03.231Z,13.70
2018-04-06T09:47:30.931Z,13.26
2018-04-06T09:49:58.527Z,13.50
2018-04-06T09:52:26.102Z,13.10
2018-04-06T09:54:53.736Z,12.90
2018-04-06T09:57:21.409Z,13.53
2018-04-06T09:59:49.045Z,13.17
2018-04-06T10:02:16.705Z,14.08
2018-04-06T10:04:44.296Z,13.76
2018-04-06T10:07:12.009Z,13.36
2018-04-06T10:09:39.593Z,14.46
2018-04-06T10:12:07.290Z,14.07
2018-04-06T10:14:34.894Z,14.68
2018-04-06T10:17:02.575Z,14.81
2018-04-06T10:19:30.185Z,14.12
2018-04-06T10:21:57.936Z,14.42
2018-04-06T10:24:25.599Z,14.63
2018-04-06T10:26:53.262Z,13.67
2018-04-06T10:29:20.926Z,13.80
2018-04-06T10:31:48.565Z,14.16
2018-04-06T10:34:16.227Z,14.08
2018-04-06T10:36:43.852Z,14.08
2018-04-06T10:39:11.565Z,15.30
2018-04-06T10:41:39.208Z,14.93
2018-04-06T10:44:06.981Z,14.43
2018-04-06T10:46:34.576Z,15.08
2018-04-06T10:49:02.195Z,15.42
2018-04-06T10:51:29.850Z,15.60
2018-04-06T10:53:57.466Z,15.02
2018-04-06T10:56:25.132Z,14.92
2018-04-06T10:58:52.745Z,14.64
2018-04-06T11:01:20.493Z,15.48
2018-04-06T11:03:48.160Z,15.12
2018-04-06T11:06:15.828Z,14.52
2018-04-06T11:08:43.436Z,14.19
2018-04-06T11:11:11.112Z,14.93
2018-04-06T11:13:38.848Z,15.34
2018-04-06T11:16:06.473Z,16.03
2018-04-06T11:18:34.133Z,16.73
2018-04-06T11:21:01.947Z,15.95
2018-04-06T11:23:29.599Z,15.58
2018-04-06T11:25:57.259Z,16.04
2018-04-06T11:28:24.924Z,16.56
2018-04-06T11:30:52.747Z,16.72
2018-04-06T11:33:20.332Z,16.85
2018-04-06T11:35:48.005Z,15.57
2018-04-06T11:38:15.710Z,16.00
2018-04-06T11:40:43.334Z,15.29
2018-04-06T11:43:10.999Z,15.03
2018-04-06T11:45:38.749Z,15.52
2018-04-06T11:48:06.449Z,16.03
2018-04-06T11:50:34.159Z,17.02
2018-04-06T11:53:01.866Z,15.85
2018-04-06T11:55:29.501Z,16.62
2018-04-06T11:57:57.145Z,15.47
2018-04-06T12:00:24.743Z,15.83
2018-04-06T12:02:53.306Z,15.25
2018-04-06T12:05:20.917Z,15.54
2018-04-06T12:07:48.587Z,15.79
2018-04-06T12:10:17.338Z,15.95
2018-04-06T12:12:45.028Z,16.11
2018-04-06T12:15:12.721Z,16.51
2018-04-06T12:17:40.347Z,16.33
2018-04-06T12:20:08.053Z,16.47
2018-04-06T12:22:35.661Z,16.81
2018-04-06T12:25:04.236Z,16.78
2018-04-06T12:27:31.955Z,16.26
2018-04-06T12:29:59.578Z,16.11
2018-04-06T12:32:27.277Z,16.16
2018-04-06T12:34:55.632Z,16.72
2018-04-06T12:37:24.124Z,16.10
2018-04-06T12:39:51.802Z,16.10
2018-04-06T12:42:19.421Z,15.57
2018-04-06T12:44:47.116Z,15.97
2018-04-06T12:47:14.915Z,15.98
2018-04-06T12:49:42.550Z,16.10
2018-04-06T12:52:10.184Z,15.97
2018-04-06T12:54:37.851Z,16.20
2018-04-06T12:57:05.495Z,15.54
2018-04-06T12:59:33.112Z,16.50
2018-04-06T13:02:00.750Z,17.11
2018-04-06T13:04:28.415Z,17.30
2018-04-06T13:06:56.032Z,16.78
2018-04-06T13:09:23.696Z,15.78
2018-04-06T13:11:51.292Z,16.08
2018-04-06T13:14:18.993Z,16.85
2018-04-06T13:16:46.631Z,16.99
2018-04-06T13:19:14.302Z,16.00
2018-04-06T13:21:41.969Z,16.32
2018-04-06T13:24:09.632Z,16.41
2018-04-06T13:26:37.257Z,15.91
2018-04-06T13:29:04.959Z,16.02
2018-04-06T13:31:32.592Z,16.28
2018-04-06T13:34:00.781Z,15.95
2018-04-06T13:36:28.466Z,16.40
2018-04-06T13:38:56.123Z,16.07
2018-04-06T13:41:23.783Z,16.37
2018-04-06T13:43:52.206Z,15.92
2018-04-06T13:46:19.888Z,16.40
2018-04-06T13:48:47.593Z,16.62
2018-04-06T13:51:15.252Z,16.77
2018-04-06T13:53:42.886Z,16.80
2018-04-06T13:56:10.570Z,16.63
2018-04-06T13:58:38.295Z,16.77
2018-04-06T14:01:05.971Z,16.58
2018-04-06T14:03:33.614Z,16.84
2018-04-06T14:06:02.447Z,16.61
2018-04-06T14:08:30.043Z,16.50
2018-04-06T14:10:57.734Z,16.66
2018-04-06T14:13:25.398Z,16.75
2018-04-06T14:15:53.076Z,16.51
2018-04-06T14:18:20.758Z,16.68
2018-04-06T14:20:48.376Z,16.42
2018-04-06T14:23:16.039Z,16.52
2018-04-06T14:25:43.710Z,16.51
2018-04-06T14:28:11.352Z,16.39
2018-04-06T14:30:39.048Z,16.19
2018-04-06T14:33:07.630Z,16.55
2018-04-06T14:35:35.285Z,16.55
2018-04-06T14:38:02.892Z,16.55
2018-04-06T14:40:31.693Z,16.34
2018-04-06T14:42:59.402Z,16.32
2018-04-06T14:45:27.071Z,16.14
2018-04-06T14:47:54.740Z,15.94
2018-04-06T14:50:22.404Z,16.15
2018-04-06T14:52:50.018Z,15.94
2018-04-06T14:55:17.681Z,16.20
2018-04-06T14:57:45.303Z,16.57
2018-04-06T15:00:12.946Z,16.59
2018-04-06T15:02:41.506Z,16.25
2018-04-06T15:05:09.208Z,16.42
2018-04-06T15:07:36.846Z,16.35
2018-04-06T15:10:04.517Z,16.38
2018-04-06T15:12:32.182Z,16.49
2018-04-06T15:14:59.771Z,16.42
2018-04-06T15:17:27.424Z,16.24
2018-04-06T15:19:55.089Z,16.24
2018-04-06T15:22:22.675Z,16.32
2018-04-06T15:24:51.246Z,16.46
2018-04-06T15:27:18.916Z,16.26
2018-04-06T15:29:46.577Z,16.21
2018-04-06T15:32:14.294Z,16.16
2018-04-06T15:34:41.919Z,16.14
2018-04-06T15:37:09.541Z,16.17
2018-04-06T15:39:37.199Z,16.05
2018-04-06T15:42:04.901Z,16.19
2018-04-06T15:44:32.611Z,16.04
2018-04-06T15:47:00.269Z,16.01
2018-04-06T15:49:27.923Z,15.82
2018-04-06T15:51:55.593Z,15.65
2018-04-06T15:54:23.253Z,15.56
2018-04-06T15:56:50.953Z,15.46
2018-04-06T15:59:18.607Z,15.45
2018-04-06T16:01:46.253Z,15.32
2018-04-06T16:04:13.932Z,14.87
2018-04-06T16:06:41.595Z,14.55
2018-04-06T16:09:09.278Z,14.30
2018-04-06T16:11:36.973Z,14.08
2018-04-06T16:14:04.716Z,14.14
2018-04-06T16:16:32.457Z,13.99
2018-04-06T16:19:00.179Z,13.98
2018-04-06T16:21:27.901Z,13.61
2018-04-06T16:23:55.625Z,13.51
2018-04-06T16:26:23.291Z,13.19
2018-04-06T16:28:50.989Z,13.11
2018-04-06T16:31:18.642Z,13.08
2018-04-06T16:33:47.130Z,13.13
2018-04-06T16:36:14.759Z,12.81
2018-04-06T16:38:42.522Z,12.78
2018-04-06T16:41:10.180Z,12.92
2018-04-06T16:43:37.853Z,12.84
2018-04-06T16:46:05.532Z,12.64
2018-04-06T16:48:33.179Z,12.61
2018-04-06T16:51:00.860Z,12.48
2018-04-06T16:53:28.548Z,12.55
2018-04-06T16:55:56.227Z,12.58
2018-04-06T16:58:23.926Z,12.55
2018-04-06T17:00:51.599Z,12.41
2018-04-06T17:03:19.287Z,12.19
2018-04-06T17:05:46.932Z,11.93
2018-04-06T17:08:14.565Z,11.76
2018-04-06T17:10:42.189Z,11.59
2018-04-06T17:13:09.924Z,11.54
2018-04-06T17:15:37.560Z,11.58
2018-04-06T17:18:05.270Z,11.42
2018-04-06T17:20:33.881Z,11.26
2018-04-06T17:23:01.509Z,11.31
2018-04-06T17:25:29.212Z,11.23
2018-04-06T17:27:56.901Z,11.04
2018-04-06T17:30:24.603Z,11.02
2018-04-06T17:32:52.281Z,10.86
2018-04-06T17:35:19.883Z,10.93
2018-04-06T17:37:47.552Z,10.87
2018-04-06T17:40:15.202Z,10.76
2018-04-06T17:42:42.877Z,10.79
2018-04-06T17:45:10.617Z,10.58
2018-04-06T17:47:38.251Z,10.60
2018-04-06T17:50:07.124Z,10.47
2018-04-06T17:52:34.743Z,10.20
2018-04-06T17:55:02.481Z,9.96
2018-04-06T17:57:30.485Z,9.81
2018-04-06T17:59:59.357Z,9.79
2018-04-06T18:02:27.113Z,9.79
2018-04-06T18:04:55.601Z,9.59
2018-04-06T18:07:23.285Z,9.48
2018-04-06T18:09:50.957Z,9.37
2018-04-06T18:12:18.630Z,9.38
2018-04-06T18:14:46.306Z,9.26
2018-04-06T18:17:13.999Z,9.30
2018-04-06T18:19:41.779Z,9.18
2018-04-06T18:22:10.723Z,9.12
2018-04-06T18:24:38.539Z,8.93
2018-04-06T18:27:06.375Z,9.02
2018-04-06T18:29:34.086Z,9.14
2018-04-06T18:32:01.759Z,9.16
2018-04-06T18:34:29.414Z,9.14
2018-04-06T18:36:57.928Z,9.02
2018-04-06T18:39:25.644Z,8.96
2018-04-06T18:41:53.473Z,8.96
2018-04-06T18:44:21.199Z,9.00
2018-04-06T18:46:48.909Z,8.82
2018-04-06T18:49:16.724Z,8.71
2018-04-06T18:51:44.604Z,8.64
2018-04-06T18:54:12.328Z,8.60
2018-04-06T18:56:40.063Z,8.38
2018-04-06T18:59:09.524Z,8.32
2018-04-06T19:01:37.798Z,8.45
2018-04-06T19:04:05.866Z,8.46
2018-04-06T19:06:33.738Z,8.31
2018-04-06T19:09:01.782Z,8.35
2018-04-06T19:11:29.527Z,8.06
2018-04-06T19:13:59.210Z,8.26
2018-04-06T19:16:27.145Z,8.00
2018-04-06T19:18:55.205Z,8.02
2018-04-06T19:21:22.987Z,7.87
2018-04-06T19:23:51.038Z,7.83
2018-04-06T19:26:19.478Z,7.72
2018-04-06T19:28:47.181Z,7.79
2018-04-06T19:31:14.866Z,7.73
2018-04-06T19:33:43.280Z,7.75
2018-04-06T19:36:11.043Z,7.89
2018-04-06T19:38:38.990Z,7.97
2018-04-06T19:41:07.356Z,7.77
2018-04-06T19:43:35.432Z,7.70
2018-04-06T19:46:03.522Z,7.45
2018-04-06T19:48:31.557Z,7.30
2018-04-06T19:50:59.386Z,7.38
2018-04-06T19:53:29.161Z,7.34
2018-04-06T19:55:57.131Z,7.24
2018-04-06T19:58:27.441Z,7.24
2018-04-06T20:00:56.465Z,7.23
2018-04-06T20:03:25.032Z,7.23
2018-04-06T20:05:52.766Z,7.12
2018-04-06T20:08:21.638Z,7.03
2018-04-06T20:10:49.352Z,6.98
2018-04-06T20:13:17.067Z,6.93
2018-04-06T20:15:44.727Z,6.83
2018-04-06T20:18:12.447Z,6.78
2018-04-06T20:20:40.160Z,6.70
2018-04-06T20:23:07.982Z,6.79
2018-04-06T20:25:37.471Z,6.95
2018-04-06T20:28:06.122Z,6.83
2018-04-06T20:30:34.942Z,6.76
2018-04-06T20:33:02.602Z,6.77
2018-04-06T20:35:30.266Z,6.79
2018-04-06T20:37:57.991Z,6.55
2018-04-06T20:40:25.671Z,6.45
2018-04-06T20:42:53.380Z,6.58
2018-04-06T20:45:22.115Z,6.54
2018-04-06T20:47:49.842Z,6.49
2018-04-06T20:50:17.603Z,6.71
2018-04-06T20:52:45.368Z,6.51
2018-04-06T20:55:13.026Z,6.39
2018-04-06T20:57:41.017Z,6.31
2018-04-06T21:00:08.774Z,6.22
2018-04-06T21:02:36.567Z,6.19
2018-04-06T21:05:05.004Z,6.23
2018-04-06T21:07:32.717Z,6.23
2018-04-06T21:10:00.380Z,6.24
2018-04-06T21:12:28.168Z,6.15
2018-04-06T21:14:55.813Z,6.04
2018-04-06T21:17:23.872Z,6.00
2018-04-06T21:19:51.756Z,5.85
2018-04-06T21:22:19.495Z,6.03
2018-04-06T21:24:47.174Z,5.90
2018-04-06T21:27:14.877Z,5.75
2018-04-06T21:29:42.572Z,5.69
2018-04-06T21:32:10.355Z,5.79
2018-04-06T21:34:38.034Z,5.75
2018-04-06T21:37:05.735Z,5.91
2018-04-06T21:39:33.628Z,5.85
2018-04-06T21:42:01.451Z,5.66
2018-04-06T21:44:29.176Z,5.60
2018-04-06T21:46:56.873Z,5.57
2018-04-06T21:49:24.539Z,5.52
2018-04-06T21:51:53.534Z,5.64
2018-04-06T21:54:21.603Z,5.43
2018-04-06T21:56:49.364Z,5.45
2018-04-06T21:59:17.068Z,5.61
2018-04-06T22:01:44.723Z,5.64
2018-04-06T22:04:12.549Z,5.48
2018-04-06T22:06:40.182Z,5.35
2018-04-06T22:09:07.898Z,5.25
2018-04-06T22:11:36.375Z,5.18
2018-04-06T22:14:04.058Z,5.11
2018-04-06T22:16:31.690Z,5.07
2018-04-06T22:18:59.378Z,5.04
2018-04-06T22:21:27.000Z,5.02
2018-04-06T22:23:54.707Z,5.16
2018-04-06T22:26:22.368Z,5.17
2018-04-06T22:28:49.975Z,5.17
2018-04-06T22:31:17.643Z,5.18
2018-04-06T22:33:45.317Z,5.22
2018-04-06T22:36:12.956Z,5.27
2018-04-06T22:38:40.657Z,5.25
2018-04-06T22:41:08.270Z,5.13
2018-04-06T22:43:36.205Z,5.06
2018-04-06T22:46:03.907Z,4.99
2018-04-06T22:48:31.728Z,4.93
2018-04-06T22:50:59.368Z,4.90
2018-04-06T22:53:26.991Z,4.87
2018-04-06T22:55:54.670Z,4.73
2018-04-06T22:58:22.365Z,4.83
2018-04-06T23:00:49.985Z,4.93
2018-04-06T23:03:18.649Z,5.01
2018-04-06T23:05:46.300Z,4.96
2018-04-06T23:08:13.988Z,4.92
2018-04-06T23:10:41.649Z,4.80
2018-04-06T23:13:09.368Z,4.83
2018-04-06T23:15:37.019Z,4.80
2018-04-06T23:18:04.744Z,4.77
2018-04-06T23:20:32.394Z,4.81
2018-04-06T23:23:00.112Z,4.82
2018-04-06T23:25:27.792Z,4.82
2018-04-06T23:27:55.541Z,4.76
2018-04-06T23:30:23.279Z,4.78
2018-04-06T23:32:51.073Z,4.81
2018-04-06T23:35:18.734Z,4.74
2018-04-06T23:37:46.463Z,4.49
2018-04-06T23:40:14.143Z,4.39
2018-04-06T23:42:41.857Z,4.46
2018-04-06T23:45:09.617Z,4.42
2018-04-06T23:47:37.270Z,4.46
2018-04-06T23:50:04.942Z,4.48
2018-04-06T23:52:32.634Z,4.67
2018-04-06T23:55:00.322Z,4.75
2018-04-06T23:57:28.007Z,4.86
2018-04-06T23:59:55.680Z,4.92
